sensor_id;sensor_type;location;lat;lon;timestamp;pressure;altitude;pressure_sealevel;temperature;humidity
21826;BME280;11075;47.944;11.776;2023-06-26T00:02:17;94915.47;;;3.07;72.76
21826;BME280;11075;47.944;11.776;2023-06-26T00:04:43;94913.84;;;3.30;71.83
21826;BME280;11075;47.944;11.776;2023-06-26T00:07:10;94916.69;;;3.38;71.67
21826;BME280;11075;47.944;11.776;2023-06-26T00:09:37;94913.69;;;2.73;76.37
21826;BME280;11075;47.944;11.776;2023-06-26T00:12:04;94915.22;;;2.79;75.53
21826;BME280;11075;47.944;11.776;2023-06-26T00:14:31;94922.41;;;2.79;76.58
21826;BME280;11075;47.944;11.776;2023-06-26T00:16:58;94917.56;;;2.86;75.31
21826;BME280;11075;47.944;11.776;2023-06-26T00:19:25;94912.13;;;2.96;73.54
21826;BME280;11075;47.944;11.776;2023-06-26T00:21:52;94914.94;;;3.05;73.60
21826;BME280;11075;47.944;11.776;2023-06-26T00:24:19;94913.56;;;3.31;72.46
21826;BME280;11075;47.944;11.776;2023-06-26T00:26:47;94920.72;;;2.88;74.11
21826;BME280;11075;47.944;11.776;2023-06-26T00:29:14;94910.53;;;2.71;75.50
21826;BME280;11075;47.944;11.776;2023-06-26T00:31:41;94910.13;;;3.07;73.73
21826;BME280;11075;47.944;11.776;2023-06-26T00:34:08;94912.84;;;3.02;74.85
21826;BME280;11075;47.944;11.776;2023-06-26T00:36:35;94924.19;;;2.89;74.16
21826;BME280;11075;47.944;11.776;2023-06-26T00:39:03;94925.53;;;3.10;72.22
21826;BME280;11075;47.944;11.776;2023-06-26T00:41:30;94920.44;;;2.90;75.40
21826;BME280;11075;47.944;11.776;2023-06-26T00:43:57;94920.59;;;2.74;78.11
21826;BME280;11075;47.944;11.776;2023-06-26T00:46:26;94921.31;;;2.51;78.80
21826;BME280;11075;47.944;11.776;2023-06-26T00:48:54;94922.69;;;2.77;75.61
21826;BME280;11075;47.944;11.776;2023-06-26T00:51:21;94925.34;;;2.77;75.53
21826;BME280;11075;47.944;11.776;2023-06-26T00:53:49;94920.13;;;2.67;76.91
21826;BME280;11075;47.944;11.776;2023-06-26T00:56:17;94920.81;;;2.49;76.90
21826;BME280;11075;47.944;11.776;2023-06-26T00:58:45;94920.88;;;2.73;75.03
21826;BME280;11075;47.944;11.776;2023-06-26T01:01:13;94919.75;;;2.79;74.82
21826;BME280;11075;47.944;11.776;2023-06-26T01:03:44;94914.75;;;2.72;75.42
21826;BME280;11075;47.944;11.776;2023-06-26T01:06:13;94919.56;;;2.70;75.22
21826;BME280;11075;47.944;11.776;2023-06-26T01:08:41;94911.88;;;2.69;74.52
21826;BME280;11075;47.944;11.776;2023-06-26T01:11:10;94917.59;;;2.52;76.69
21826;BME280;11075;47.944;11.776;2023-06-26T01:13:37;94914.03;;;2.62;76.83
21826;BME280;11075;47.944;11.776;2023-06-26T01:16:05;94915.63;;;2.63;75.79
21826;BME280;11075;47.944;11.776;2023-06-26T01:18:32;94923.09;;;1.98;82.94
21826;BME280;11075;47.944;11.776;2023-06-26T01:21:01;94921.38;;;2.46;77.42
21826;BME280;11075;47.944;11.776;2023-06-26T01:23:38;94923.19;;;2.51;76.25
21826;BME280;11075;47.944;11.776;2023-06-26T01:28:39;94913.56;;;2.26;79.38
21826;BME280;11075;47.944;11.776;2023-06-26T01:31:08;94908.34;;;2.44;77.56
21826;BME280;11075;47.944;11.776;2023-06-26T01:33:36;94910.16;;;2.49;75.31
21826;BME280;11075;47.944;11.776;2023-06-26T01:36:03;94909.47;;;2.38;75.75
21826;BME280;11075;47.944;11.776;2023-06-26T01:38:30;94907.97;;;2.27;77.86
21826;BME280;11075;47.944;11.776;2023-06-26T01:40:57;94908.97;;;2.36;76.83
21826;BME280;11075;47.944;11.776;2023-06-26T01:49:09;94908.72;;;2.33;75.82
21826;BME280;11075;47.944;11.776;2023-06-26T01:51:51;94904.06;;;2.20;77.13
21826;BME280;11075;47.944;11.776;2023-06-26T01:54:21;94904.88;;;2.15;77.58
21826;BME280;11075;47.944;11.776;2023-06-26T01:56:52;94899.00;;;2.18;78.28
21826;BME280;11075;47.944;11.776;2023-06-26T01:59:21;94909.16;;;2.11;78.72
21826;BME280;11075;47.944;11.776;2023-06-26T02:01:48;94906.50;;;1.77;81.23
21826;BME280;11075;47.944;11.776;2023-06-26T02:04:15;94904.56;;;1.88;81.08
21826;BME280;11075;47.944;11.776;2023-06-26T02:06:42;94911.16;;;1.95;80.93
21826;BME280;11075;47.944;11.776;2023-06-26T02:09:09;94909.97;;;2.11;77.34
21826;BME280;11075;47.944;11.776;2023-06-26T02:11:36;94903.50;;;2.23;77.40
21826;BME280;11075;47.944;11.776;2023-06-26T02:14:03;94913.47;;;2.07;78.37
21826;BME280;11075;47.944;11.776;2023-06-26T02:16:30;94911.47;;;2.23;77.24
21826;BME280;11075;47.944;11.776;2023-06-26T02:18:57;94906.19;;;2.18;76.67
21826;BME280;11075;47.944;11.776;2023-06-26T02:21:24;94908.06;;;2.17;77.17
21826;BME280;11075;47.944;11.776;2023-06-26T02:23:51;94914.00;;;2.04;77.84
21826;BME280;11075;47.944;11.776;2023-06-26T02:26:17;94910.75;;;2.12;78.08
21826;BME280;11075;47.944;11.776;2023-06-26T02:28:44;94911.69;;;1.92;77.48
21826;BME280;11075;47.944;11.776;2023-06-26T02:31:11;94919.47;;;1.83;79.33
21826;BME280;11075;47.944;11.776;2023-06-26T02:33:38;94916.66;;;1.65;80.54
21826;BME280;11075;47.944;11.776;2023-06-26T02:36:05;94916.38;;;2.05;78.51
21826;BME280;11075;47.944;11.776;2023-06-26T02:38:32;94918.78;;;1.68;82.36
21826;BME280;11075;47.944;11.776;2023-06-26T02:41:01;94917.31;;;1.86;78.36
21826;BME280;11075;47.944;11.776;2023-06-26T02:43:28;94913.38;;;1.78;81.25
21826;BME280;11075;47.944;11.776;2023-06-26T02:45:55;94913.94;;;1.75;79.42
21826;BME280;11075;47.944;11.776;2023-06-26T02:48:22;94913.91;;;1.80;79.57
21826;BME280;11075;47.944;11.776;2023-06-26T02:50:49;94911.31;;;2.09;77.03
21826;BME280;11075;47.944;11.776;2023-06-26T02:53:17;94909.03;;;1.92;77.45
21826;BME280;11075;47.944;11.776;2023-06-26T02:55:45;94922.41;;;1.82;78.96
21826;BME280;11075;47.944;11.776;2023-06-26T02:58:15;94915.00;;;1.74;79.46
21826;BME280;11075;47.944;11.776;2023-06-26T03:00:42;94921.59;;;1.81;80.21
21826;BME280;11075;47.944;11.776;2023-06-26T03:03:14;94919.63;;;1.97;79.00
21826;BME280;11075;47.944;11.776;2023-06-26T03:05:40;94915.56;;;1.71;80.27
21826;BME280;11075;47.944;11.776;2023-06-26T03:08:08;94924.06;;;1.73;78.58
21826;BME280;11075;47.944;11.776;2023-06-26T03:10:34;94923.03;;;1.64;79.18
21826;BME280;11075;47.944;11.776;2023-06-26T03:13:01;94923.44;;;1.86;79.50
21826;BME280;11075;47.944;11.776;2023-06-26T03:15:28;94914.72;;;1.80;78.87
21826;BME280;11075;47.944;11.776;2023-06-26T03:17:55;94919.06;;;1.61;82.53
21826;BME280;11075;47.944;11.776;2023-06-26T03:20:25;94915.63;;;1.61;79.34
21826;BME280;11075;47.944;11.776;2023-06-26T03:22:54;94916.06;;;1.73;78.63
21826;BME280;11075;47.944;11.776;2023-06-26T03:25:22;94917.25;;;1.51;81.67
21826;BME280;11075;47.944;11.776;2023-06-26T03:27:56;94909.50;;;1.60;80.73
21826;BME280;11075;47.944;11.776;2023-06-26T03:30:24;94915.00;;;1.74;79.60
21826;BME280;11075;47.944;11.776;2023-06-26T03:32:52;94910.84;;;1.63;79.58
21826;BME280;11075;47.944;11.776;2023-06-26T03:35:20;94912.38;;;1.69;80.08
21826;BME280;11075;47.944;11.776;2023-06-26T03:37:48;94925.72;;;1.54;82.41
21826;BME280;11075;47.944;11.776;2023-06-26T03:40:15;94924.38;;;1.56;83.07
21826;BME280;11075;47.944;11.776;2023-06-26T03:42:43;94927.91;;;1.41;86.54
21826;BME280;11075;47.944;11.776;2023-06-26T03:45:10;94927.94;;;1.36;86.46
21826;BME280;11075;47.944;11.776;2023-06-26T03:47:37;94927.59;;;1.58;84.17
21826;BME280;11075;47.944;11.776;2023-06-26T03:50:05;94922.34;;;1.92;81.58
21826;BME280;11075;47.944;11.776;2023-06-26T03:52:32;94922.75;;;2.09;79.87
21826;BME280;11075;47.944;11.776;2023-06-26T03:54:58;94915.25;;;2.45;78.00
21826;BME280;11075;47.944;11.776;2023-06-26T03:57:25;94915.91;;;2.61;76.19
21826;BME280;11075;47.944;11.776;2023-06-26T03:59:52;94910.13;;;2.54;76.31
21826;BME280;11075;47.944;11.776;2023-06-26T04:02:21;94912.81;;;2.20;78.13
21826;BME280;11075;47.944;11.776;2023-06-26T04:04:47;94910.13;;;2.25;77.77
21826;BME280;11075;47.944;11.776;2023-06-26T04:07:14;94917.09;;;2.79;75.58
21826;BME280;11075;47.944;11.776;2023-06-26T04:09:41;94914.22;;;2.75;76.28
21826;BME280;11075;47.944;11.776;2023-06-26T04:12:08;94907.81;;;2.76;75.22
21826;BME280;11075;47.944;11.776;2023-06-26T04:14:35;94914.47;;;2.45;78.12
21826;BME280;11075;47.944;11.776;2023-06-26T04:17:02;94914.03;;;2.62;77.51
21826;BME280;11075;47.944;11.776;2023-06-26T04:19:30;94917.47;;;2.67;77.24
21826;BME280;11075;47.944;11.776;2023-06-26T04:21:57;94912.56;;;2.51;78.71
21826;BME280;11075;47.944;11.776;2023-06-26T04:24:23;94911.22;;;2.82;77.16
21826;BME280;11075;47.944;11.776;2023-06-26T04:26:50;94918.69;;;2.80;76.93
21826;BME280;11075;47.944;11.776;2023-06-26T04:29:17;94913.59;;;3.07;76.42
21826;BME280;11075;47.944;11.776;2023-06-26T04:31:44;94912.50;;;3.75;73.48
21826;BME280;11075;47.944;11.776;2023-06-26T04:34:14;94916.06;;;3.65;73.35
21826;BME280;11075;47.944;11.776;2023-06-26T04:36:41;94915.34;;;3.60;74.15
21826;BME280;11075;47.944;11.776;2023-06-26T04:39:14;94916.22;;;4.12;70.99
21826;BME280;11075;47.944;11.776;2023-06-26T04:41:41;94927.53;;;3.85;72.54
21826;BME280;11075;47.944;11.776;2023-06-26T04:44:08;94918.88;;;4.12;70.93
21826;BME280;11075;47.944;11.776;2023-06-26T04:46:37;94918.09;;;3.92;72.23
21826;BME280;11075;47.944;11.776;2023-06-26T04:49:08;94913.81;;;4.29;68.91
21826;BME280;11075;47.944;11.776;2023-06-26T04:51:35;94911.47;;;3.90;71.64
21826;BME280;11075;47.944;11.776;2023-06-26T04:54:07;94914.13;;;4.41;70.91
21826;BME280;11075;47.944;11.776;2023-06-26T04:56:34;94909.28;;;4.62;68.39
21826;BME280;11075;47.944;11.776;2023-06-26T04:59:02;94916.91;;;4.82;67.83
21826;BME280;11075;47.944;11.776;2023-06-26T05:01:29;94912.78;;;5.03;65.78
21826;BME280;11075;47.944;11.776;2023-06-26T05:03:57;94905.84;;;5.02;66.23
21826;BME280;11075;47.944;11.776;2023-06-26T05:06:24;94917.13;;;5.41;66.42
21826;BME280;11075;47.944;11.776;2023-06-26T05:08:51;94908.63;;;5.25;65.49
21826;BME280;11075;47.944;11.776;2023-06-26T05:11:18;94917.94;;;5.27;66.55
21826;BME280;11075;47.944;11.776;2023-06-26T05:13:45;94907.63;;;5.48;66.84
21826;BME280;11075;47.944;11.776;2023-06-26T05:16:11;94912.97;;;5.62;66.03
21826;BME280;11075;47.944;11.776;2023-06-26T05:18:38;94911.50;;;5.56;68.53
21826;BME280;11075;47.944;11.776;2023-06-26T05:21:05;94911.63;;;5.87;65.51
21826;BME280;11075;47.944;11.776;2023-06-26T05:23:33;94908.97;;;5.73;66.42
21826;BME280;11075;47.944;11.776;2023-06-26T05:26:01;94906.56;;;6.44;64.72
21826;BME280;11075;47.944;11.776;2023-06-26T05:28:30;94896.34;;;6.46;65.09
21826;BME280;11075;47.944;11.776;2023-06-26T05:31:00;94904.81;;;6.39;65.45
21826;BME280;11075;47.944;11.776;2023-06-26T05:33:27;94907.81;;;6.69;65.30
21826;BME280;11075;47.944;11.776;2023-06-26T05:35:55;94903.06;;;6.66;66.31
21826;BME280;11075;47.944;11.776;2023-06-26T05:38:22;94904.09;;;7.18;66.04
21826;BME280;11075;47.944;11.776;2023-06-26T05:40:49;94910.78;;;6.98;65.19
21826;BME280;11075;47.944;11.776;2023-06-26T05:43:16;94903.13;;;7.62;61.25
21826;BME280;11075;47.944;11.776;2023-06-26T05:45:53;94899.34;;;7.80;63.11
21826;BME280;11075;47.944;11.776;2023-06-26T05:48:20;94902.22;;;8.27;60.26
21826;BME280;11075;47.944;11.776;2023-06-26T05:50:47;94900.25;;;8.71;58.26
21826;BME280;11075;47.944;11.776;2023-06-26T05:53:14;94892.59;;;8.35;58.77
21826;BME280;11075;47.944;11.776;2023-06-26T05:55:41;94895.53;;;8.68;58.26
21826;BME280;11075;47.944;11.776;2023-06-26T05:58:12;94892.28;;;9.00;58.45
21826;BME280;11075;47.944;11.776;2023-06-26T06:00:41;94891.81;;;8.98;57.99
21826;BME280;11075;47.944;11.776;2023-06-26T06:03:09;94895.50;;;10.03;55.20
21826;BME280;11075;47.944;11.776;2023-06-26T06:05:37;94885.88;;;10.56;52.46
21826;BME280;11075;47.944;11.776;2023-06-26T06:08:04;94892.94;;;10.48;55.01
21826;BME280;11075;47.944;11.776;2023-06-26T06:10:31;94880.50;;;11.13;49.71
21826;BME280;11075;47.944;11.776;2023-06-26T06:12:58;94890.50;;;11.25;49.72
21826;BME280;11075;47.944;11.776;2023-06-26T06:15:25;94878.38;;;11.67;49.69
21826;BME280;11075;47.944;11.776;2023-06-26T06:17:55;94888.47;;;11.83;49.78
21826;BME280;11075;47.944;11.776;2023-06-26T06:20:22;94876.91;;;12.10;48.88
21826;BME280;11075;47.944;11.776;2023-06-26T06:22:49;94885.59;;;12.03;48.41
21826;BME280;11075;47.944;11.776;2023-06-26T06:25:16;94883.09;;;12.11;47.32
21826;BME280;11075;47.944;11.776;2023-06-26T06:27:43;94879.53;;;12.62;47.74
21826;BME280;11075;47.944;11.776;2023-06-26T06:30:10;94887.47;;;13.15;45.52
21826;BME280;11075;47.944;11.776;2023-06-26T06:32:37;94879.53;;;13.22;47.52
21826;BME280;11075;47.944;11.776;2023-06-26T06:35:05;94888.91;;;13.59;45.75
21826;BME280;11075;47.944;11.776;2023-06-26T06:37:38;94875.81;;;13.96;43.15
21826;BME280;11075;47.944;11.776;2023-06-26T06:40:06;94873.28;;;14.04;45.54
21826;BME280;11075;47.944;11.776;2023-06-26T06:42:33;94870.06;;;13.98;43.41
21826;BME280;11075;47.944;11.776;2023-06-26T06:45:02;94885.75;;;14.08;42.87
21826;BME280;11075;47.944;11.776;2023-06-26T06:47:30;94889.25;;;14.67;41.67
21826;BME280;11075;47.944;11.776;2023-06-26T06:49:57;94882.50;;;14.38;42.10
21826;BME280;11075;47.944;11.776;2023-06-26T06:52:24;94881.28;;;15.42;39.03
21826;BME280;11075;47.944;11.776;2023-06-26T06:54:52;94888.63;;;14.35;40.00
21826;BME280;11075;47.944;11.776;2023-06-26T06:57:20;94889.97;;;14.83;35.78
21826;BME280;11075;47.944;11.776;2023-06-26T06:59:48;94875.66;;;15.32;37.28
21826;BME280;11075;47.944;11.776;2023-06-26T07:02:18;94866.69;;;15.05;36.63
21826;BME280;11075;47.944;11.776;2023-06-26T07:04:45;94879.09;;;16.04;34.97
21826;BME280;11075;47.944;11.776;2023-06-26T07:07:12;94866.88;;;15.65;36.79
21826;BME280;11075;47.944;11.776;2023-06-26T07:09:40;94869.03;;;15.78;37.45
21826;BME280;11075;47.944;11.776;2023-06-26T07:12:07;94885.97;;;15.98;34.20
21826;BME280;11075;47.944;11.776;2023-06-26T07:14:34;94885.44;;;16.79;34.24
21826;BME280;11075;47.944;11.776;2023-06-26T07:17:01;94892.13;;;16.85;33.09
21826;BME280;11075;47.944;11.776;2023-06-26T07:19:28;94899.50;;;16.21;32.56
21826;BME280;11075;47.944;11.776;2023-06-26T07:21:55;94891.50;;;15.75;33.50
21826;BME280;11075;47.944;11.776;2023-06-26T07:24:21;94859.47;;;16.51;34.44
21826;BME280;11075;47.944;11.776;2023-06-26T07:26:48;94867.00;;;17.46;33.83
21826;BME280;11075;47.944;11.776;2023-06-26T07:29:16;94860.84;;;16.68;34.47
21826;BME280;11075;47.944;11.776;2023-06-26T07:31:43;94864.41;;;16.09;34.27
21826;BME280;11075;47.944;11.776;2023-06-26T07:34:12;94866.97;;;16.28;34.06
21826;BME280;11075;47.944;11.776;2023-06-26T07:36:39;94880.53;;;16.25;32.88
21826;BME280;11075;47.944;11.776;2023-06-26T07:39:06;94893.38;;;17.35;33.00
21826;BME280;11075;47.944;11.776;2023-06-26T07:41:36;94890.47;;;16.43;32.55
21826;BME280;11075;47.944;11.776;2023-06-26T07:44:03;94854.41;;;16.83;35.36
21826;BME280;11075;47.944;11.776;2023-06-26T07:46:30;94885.97;;;15.98;32.77
21826;BME280;11075;47.944;11.776;2023-06-26T07:48:57;94876.41;;;16.38;33.90
21826;BME280;11075;47.944;11.776;2023-06-26T07:51:23;94874.19;;;15.87;34.19
21826;BME280;11075;47.944;11.776;2023-06-26T07:53:50;94886.66;;;17.22;32.87
21826;BME280;11075;47.944;11.776;2023-06-26T07:56:17;94869.88;;;17.16;33.81
21826;BME280;11075;47.944;11.776;2023-06-26T07:58:44;94871.09;;;17.23;32.96
21826;BME280;11075;47.944;11.776;2023-06-26T08:01:11;94899.97;;;17.34;32.63
21826;BME280;11075;47.944;11.776;2023-06-26T08:03:38;94872.91;;;17.56;32.71
21826;BME280;11075;47.944;11.776;2023-06-26T08:06:06;94888.28;;;16.90;32.33
21826;BME280;11075;47.944;11.776;2023-06-26T08:08:36;94889.91;;;16.98;32.01
21826;BME280;11075;47.944;11.776;2023-06-26T08:11:03;94865.28;;;17.24;34.71
21826;BME280;11075;47.944;11.776;2023-06-26T08:13:30;94874.31;;;16.95;32.83
21826;BME280;11075;47.944;11.776;2023-06-26T08:15:56;94856.22;;;17.13;33.70
21826;BME280;11075;47.944;11.776;2023-06-26T08:18:24;94889.56;;;17.98;31.51
21826;BME280;11075;47.944;11.776;2023-06-26T08:20:50;94885.31;;;18.08;31.65
21826;BME280;11075;47.944;11.776;2023-06-26T08:23:17;94863.28;;;18.38;32.63
21826;BME280;11075;47.944;11.776;2023-06-26T08:25:44;94876.66;;;17.37;32.41
21826;BME280;11075;47.944;11.776;2023-06-26T08:28:13;94867.59;;;18.46;32.26
21826;BME280;11075;47.944;11.776;2023-06-26T08:30:40;94872.38;;;17.36;31.55
21826;BME280;11075;47.944;11.776;2023-06-26T08:33:07;94875.94;;;19.10;31.38
21826;BME280;11075;47.944;11.776;2023-06-26T08:35:38;94862.22;;;18.74;31.21
21826;BME280;11075;47.944;11.776;2023-06-26T08:38:05;94884.91;;;19.11;30.43
21826;BME280;11075;47.944;11.776;2023-06-26T08:40:32;94895.31;;;20.54;28.56
21826;BME280;11075;47.944;11.776;2023-06-26T08:42:59;94873.66;;;19.41;30.22
21826;BME280;11075;47.944;11.776;2023-06-26T08:45:26;94843.09;;;20.06;30.88
21826;BME280;11075;47.944;11.776;2023-06-26T08:47:58;94851.56;;;18.27;31.13
21826;BME280;11075;47.944;11.776;2023-06-26T08:50:30;94845.88;;;19.92;31.19
21826;BME280;11075;47.944;11.776;2023-06-26T08:53:29;94872.81;;;19.79;29.70
21826;BME280;11075;47.944;11.776;2023-06-26T08:56:01;94885.41;;;20.82;28.38
21826;BME280;11075;47.944;11.776;2023-06-26T08:58:28;94854.50;;;19.01;30.37
21826;BME280;11075;47.944;11.776;2023-06-26T09:00:55;94885.16;;;18.56;28.99
21826;BME280;11075;47.944;11.776;2023-06-26T09:03:23;94881.84;;;19.48;29.39
21826;BME280;11075;47.944;11.776;2023-06-26T09:05:51;94851.34;;;19.92;30.55
21826;BME280;11075;47.944;11.776;2023-06-26T09:08:18;94856.06;;;19.63;29.48
21826;BME280;11075;47.944;11.776;2023-06-26T09:10:45;94882.09;;;20.35;27.88
21826;BME280;11075;47.944;11.776;2023-06-26T09:13:13;94873.97;;;19.99;28.05
21826;BME280;11075;47.944;11.776;2023-06-26T09:15:54;94827.44;;;18.43;30.98
21826;BME280;11075;47.944;11.776;2023-06-26T09:18:22;94859.44;;;20.24;28.77
21826;BME280;11075;47.944;11.776;2023-06-26T09:20:49;94861.91;;;19.19;28.72
21826;BME280;11075;47.944;11.776;2023-06-26T09:23:17;94889.94;;;20.22;27.22
21826;BME280;11075;47.944;11.776;2023-06-26T09:25:47;94828.72;;;19.70;29.46
21826;BME280;11075;47.944;11.776;2023-06-26T09:28:14;94862.97;;;20.21;27.54
21826;BME280;11075;47.944;11.776;2023-06-26T09:30:41;94865.69;;;20.24;26.99
21826;BME280;11075;47.944;11.776;2023-06-26T09:33:19;94858.22;;;21.64;26.33
21826;BME280;11075;47.944;11.776;2023-06-26T09:35:47;94854.19;;;21.27;26.35
21826;BME280;11075;47.944;11.776;2023-06-26T09:38:14;94855.50;;;21.60;26.84
21826;BME280;11075;47.944;11.776;2023-06-26T09:40:41;94832.22;;;20.83;27.25
21826;BME280;11075;47.944;11.776;2023-06-26T09:43:13;94846.34;;;19.41;27.30
21826;BME280;11075;47.944;11.776;2023-06-26T09:45:40;94839.59;;;20.02;27.30
21826;BME280;11075;47.944;11.776;2023-06-26T09:48:07;94847.44;;;20.87;26.25
21826;BME280;11075;47.944;11.776;2023-06-26T09:50:41;94848.69;;;21.35;26.25
21826;BME280;11075;47.944;11.776;2023-06-26T09:53:26;94857.22;;;20.88;25.59
21826;BME280;11075;47.944;11.776;2023-06-26T09:55:53;94833.38;;;20.89;26.76
21826;BME280;11075;47.944;11.776;2023-06-26T09:58:22;94813.00;;;21.42;27.46
21826;BME280;11075;47.944;11.776;2023-06-26T10:00:50;94844.06;;;21.24;25.39
21826;BME280;11075;47.944;11.776;2023-06-26T10:03:18;94840.41;;;21.42;25.31
21826;BME280;11075;47.944;11.776;2023-06-26T10:05:46;94874.28;;;21.62;24.01
21826;BME280;11075;47.944;11.776;2023-06-26T10:08:15;94859.00;;;22.06;23.96
21826;BME280;11075;47.944;11.776;2023-06-26T10:10:43;94824.63;;;22.32;25.09
21826;BME280;11075;47.944;11.776;2023-06-26T10:13:21;94818.47;;;21.45;25.85
21826;BME280;11075;47.944;11.776;2023-06-26T10:15:50;94837.47;;;22.04;24.46
21826;BME280;11075;47.944;11.776;2023-06-26T10:18:18;94841.31;;;23.02;24.50
21826;BME280;11075;47.944;11.776;2023-06-26T10:20:47;94828.81;;;22.70;24.68
21826;BME280;11075;47.944;11.776;2023-06-26T10:23:15;94809.63;;;21.68;25.56
21826;BME280;11075;47.944;11.776;2023-06-26T10:25:45;94849.44;;;21.83;23.37
21826;BME280;11075;47.944;11.776;2023-06-26T10:28:16;94823.34;;;22.06;24.44
21826;BME280;11075;47.944;11.776;2023-06-26T10:30:44;94831.75;;;20.11;24.88
21826;BME280;11075;47.944;11.776;2023-06-26T10:33:14;94799.47;;;19.63;26.13
21826;BME280;11075;47.944;11.776;2023-06-26T10:35:43;94840.28;;;21.04;23.62
21826;BME280;11075;47.944;11.776;2023-06-26T10:38:14;94804.34;;;20.98;26.18
21826;BME280;11075;47.944;11.776;2023-06-26T10:40:41;94806.53;;;19.32;25.75
21826;BME280;11075;47.944;11.776;2023-06-26T10:43:10;94826.72;;;21.42;24.49
21826;BME280;11075;47.944;11.776;2023-06-26T10:45:46;94818.97;;;21.33;24.76
21826;BME280;11075;47.944;11.776;2023-06-26T10:48:16;94789.34;;;19.46;26.53
21826;BME280;11075;47.944;11.776;2023-06-26T10:50:43;94780.78;;;19.01;26.98
21826;BME280;11075;47.944;11.776;2023-06-26T10:55:50;94816.47;;;20.24;25.47
21826;BME280;11075;47.944;11.776;2023-06-26T10:58:33;94814.69;;;22.07;24.59
21826;BME280;11075;47.944;11.776;2023-06-26T11:01:23;94834.50;;;22.22;23.24
21826;BME280;11075;47.944;11.776;2023-06-26T11:06:29;94831.06;;;22.14;22.99
21826;BME280;11075;47.944;11.776;2023-06-26T11:09:01;94814.94;;;21.45;24.49
21826;BME280;11075;47.944;11.776;2023-06-26T11:14:19;94789.59;;;20.01;25.72
21826;BME280;11075;47.944;11.776;2023-06-26T11:16:46;94792.84;;;21.63;24.51
21826;BME280;11075;47.944;11.776;2023-06-26T11:19:14;94802.72;;;24.22;23.93
21826;BME280;11075;47.944;11.776;2023-06-26T11:21:42;94830.28;;;21.76;23.50
21826;BME280;11075;47.944;11.776;2023-06-26T11:24:10;94821.06;;;22.35;24.11
21826;BME280;11075;47.944;11.776;2023-06-26T11:26:42;94825.19;;;20.82;23.19
21826;BME280;11075;47.944;11.776;2023-06-26T11:29:10;94792.34;;;21.34;25.17
21826;BME280;11075;47.944;11.776;2023-06-26T11:31:39;94831.94;;;22.99;22.13
21826;BME280;11075;47.944;11.776;2023-06-26T11:34:09;94792.22;;;20.30;24.46
21826;BME280;11075;47.944;11.776;2023-06-26T11:36:40;94789.81;;;20.43;24.28
21826;BME280;11075;47.944;11.776;2023-06-26T11:39:09;94785.88;;;20.51;24.82
21826;BME280;11075;47.944;11.776;2023-06-26T11:41:37;94807.88;;;23.34;23.40
21826;BME280;11075;47.944;11.776;2023-06-26T11:44:07;94802.28;;;23.61;22.62
21826;BME280;11075;47.944;11.776;2023-06-26T11:46:35;94775.41;;;20.35;25.30
21826;BME280;11075;47.944;11.776;2023-06-26T11:49:08;94774.38;;;21.25;24.07
21826;BME280;11075;47.944;11.776;2023-06-26T11:51:35;94762.84;;;20.45;25.30
21826;BME280;11075;47.944;11.776;2023-06-26T11:54:06;94746.44;;;19.39;26.46
21826;BME280;11075;47.944;11.776;2023-06-26T11:56:33;94738.28;;;18.93;27.49
21826;BME280;11075;47.944;11.776;2023-06-26T11:59:05;94772.78;;;20.83;25.07
21826;BME280;11075;47.944;11.776;2023-06-26T12:01:44;94768.94;;;21.63;25.06
21826;BME280;11075;47.944;11.776;2023-06-26T12:04:16;94765.44;;;23.35;25.19
21826;BME280;11075;47.944;11.776;2023-06-26T12:06:46;94787.81;;;22.29;24.18
21826;BME280;11075;47.944;11.776;2023-06-26T12:09:15;94814.41;;;23.16;21.53
21826;BME280;11075;47.944;11.776;2023-06-26T12:11:45;94787.63;;;23.67;22.87
21826;BME280;11075;47.944;11.776;2023-06-26T12:14:16;94780.22;;;24.27;23.05
21826;BME280;11075;47.944;11.776;2023-06-26T12:16:44;94817.78;;;23.28;21.55
21826;BME280;11075;47.944;11.776;2023-06-26T12:19:11;94807.13;;;22.79;22.20
21826;BME280;11075;47.944;11.776;2023-06-26T12:24:06;94781.19;;;21.92;23.38
21826;BME280;11075;47.944;11.776;2023-06-26T12:26:33;94818.91;;;22.80;21.48
21826;BME280;11075;47.944;11.776;2023-06-26T12:29:07;94759.75;;;21.43;24.10
21826;BME280;11075;47.944;11.776;2023-06-26T12:31:34;94765.22;;;21.46;24.09
21826;BME280;11075;47.944;11.776;2023-06-26T12:34:09;94759.19;;;20.65;24.75
21826;BME280;11075;47.944;11.776;2023-06-26T12:36:42;94748.66;;;19.87;25.27
21826;BME280;11075;47.944;11.776;2023-06-26T12:39:10;94758.69;;;21.33;24.01
21826;BME280;11075;47.944;11.776;2023-06-26T12:42:07;94795.31;;;23.33;22.56
21826;BME280;11075;47.944;11.776;2023-06-26T12:44:36;94762.19;;;22.39;23.98
21826;BME280;11075;47.944;11.776;2023-06-26T12:47:03;94786.09;;;23.19;22.21
21826;BME280;11075;47.944;11.776;2023-06-26T12:49:37;94783.19;;;22.80;22.89
21826;BME280;11075;47.944;11.776;2023-06-26T12:52:06;94767.22;;;22.98;23.20
21826;BME280;11075;47.944;11.776;2023-06-26T12:54:34;94761.16;;;19.85;24.39
21826;BME280;11075;47.944;11.776;2023-06-26T12:57:02;94771.75;;;20.56;22.93
21826;BME280;11075;47.944;11.776;2023-06-26T12:59:31;94749.16;;;20.45;24.51
21826;BME280;11075;47.944;11.776;2023-06-26T13:01:59;94767.66;;;20.89;23.34
21826;BME280;11075;47.944;11.776;2023-06-26T13:04:27;94781.44;;;23.16;21.66
21826;BME280;11075;47.944;11.776;2023-06-26T13:06:54;94789.97;;;22.72;21.42
21826;BME280;11075;47.944;11.776;2023-06-26T13:09:23;94788.03;;;23.23;21.75
21826;BME280;11075;47.944;11.776;2023-06-26T13:11:51;94747.91;;;21.12;23.94
21826;BME280;11075;47.944;11.776;2023-06-26T13:14:18;94756.50;;;23.31;23.21
21826;BME280;11075;47.944;11.776;2023-06-26T13:16:45;94761.38;;;23.43;22.55
21826;BME280;11075;47.944;11.776;2023-06-26T13:19:12;94736.41;;;20.83;24.48
21826;BME280;11075;47.944;11.776;2023-06-26T13:21:38;94720.22;;;20.47;24.76